Suehiro Maru No.8 — JK5423 — position and weather

sailwx.info

Track history (hours):
 
Tides and Currents Weather Stations Pressure Air Temp Water Temp Dewpoint Dewpoint Depression Visibility Wind Speed Wind Dir Waves Ship Positions

Suehiro Maru No.8

Last reported at 2017-Oct-10 15:03 UTC. Time now 2017-Oct-17 15:33 UTC.
Position N 33°57' E 134°56'.

Length 88 m; draft 4.5 m.

Type: Cargo ship. MMSI: 431400446.

Date/timePositionNaut miles runAvg speedWind from/ knotsBaromVisibWave heightAir tempDewpointWater temp
2017-Oct-10 15:03N 33°57' E 134°56'  
2017-Oct-06 10:50N 34°51' E 139°12'1212.4
2017-Oct-06 09:52N 34°58' E 139°23'412.3
2017-Oct-06 09:30N 35°01' E 139°28'611.9
2017-Oct-06 09:00N 35°04' E 139°34'612.4
2017-Oct-06 08:30N 35°07' E 139°40'612.2
2017-Oct-06 08:00N 35°11' E 139°45'611.5
2017-Oct-06 07:31N 35°17' E 139°45'612.4
2017-Oct-06 07:01N 35°23' E 139°42'612.7
2017-Oct-06 06:31N 35°28' E 139°48'3 6.3
2017-Oct-06 06:00N 35°31' E 139°50'0 0.0
2017-Oct-06 05:31N 35°31' E 139°50'0 0.1
2017-Oct-06 05:01N 35°31' E 139°50'4 8.8
2017-Oct-06 04:31N 35°35' E 139°51'3 5.1
2017-Oct-06 03:56N 35°37' E 139°49'0 0.0
2017-Oct-06 03:27N 35°37' E 139°49'0 0.0
2017-Oct-06 03:00N 35°37' E 139°49'0 0.0
2017-Oct-06 02:30N 35°37' E 139°49'0 0.0
2017-Oct-06 02:00N 35°37' E 139°49'0 0.0
2017-Oct-06 01:30N 35°37' E 139°49'0 0.0
2017-Oct-06 00:59N 35°37' E 139°49'0 0.0
2017-Oct-06 00:29N 35°37' E 139°49'0 0.0
2017-Oct-05 23:59N 35°37' E 139°49'0 0.0
2017-Oct-05 23:30N 35°37' E 139°49'0 0.0
2017-Oct-05 23:00N 35°37' E 139°49'0 0.0
2017-Oct-05 22:30N 35°37' E 139°49'0 0.0
2017-Oct-05 21:57N 35°37' E 139°49'2 5.2
2017-Oct-05 21:30N 35°36' E 139°50'2 3.5
2017-Oct-05 21:01N 35°34' E 139°52'0 0.0
2017-Oct-05 20:31N 35°34' E 139°52'0 0.0
2017-Oct-05 20:01N 35°34' E 139°52'0 0.0
2017-Oct-05 19:31N 35°34' E 139°52'5 9.9
2017-Oct-05 19:00N 35°29' E 139°52'612.3
2017-Oct-05 18:31N 35°23' E 139°51'2 3.3
2017-Oct-05 18:00N 35°22' E 139°52'0 0.0
2017-Oct-05 17:30N 35°22' E 139°52'0 0.0
2017-Oct-05 17:00N 35°22' E 139°52'0 0.0
2017-Oct-05 15:10N 35°22' E 139°52'0 0.0
2017-Oct-05 15:00N 35°22' E 139°52'0 0.0
2017-Oct-05 14:30N 35°22' E 139°52'0 0.0
2017-Oct-05 14:00N 35°22' E 139°52'0 0.0
2017-Oct-05 13:30N 35°22' E 139°52'0 0.0
2017-Oct-05 11:30N 35°22' E 139°52'0 0.0
2017-Oct-05 10:51N 35°22' E 139°52'0 0.0
2017-Oct-05 10:24N 35°22' E 139°52'0 0.0
2017-Oct-05 08:00N 35°22' E 139°52'0 0.0
2017-Oct-05 07:18N 35°22' E 139°52'0 0.0
2017-Oct-05 06:58N 35°22' E 139°52'0 0.0
2017-Oct-05 06:30N 35°22' E 139°52'0 0.0
2017-Oct-05 05:58N 35°22' E 139°52'0 0.1
2017-Oct-05 05:31N 35°22' E 139°52'3 6.6
2017-Oct-05 05:00N 35°23' E 139°49'4 8.1
2017-Oct-05 04:31N 35°25' E 139°44'510.8
2017-Oct-05 04:01N 35°28' E 139°39'0 0.2
2017-Oct-05 03:31N 35°29' E 139°39'0 0.0
2017-Oct-05 03:01N 35°29' E 139°39'0 0.0
2017-Oct-05 02:31N 35°29' E 139°39'0 0.0
2017-Oct-05 02:01N 35°29' E 139°39'0 0.0
2017-Oct-05 01:31N 35°29' E 139°39'0 0.0
2017-Oct-05 01:01N 35°29' E 139°39'0 0.0
2017-Oct-05 00:30N 35°29' E 139°39'0 0.0
2017-Oct-05 00:01N 35°29' E 139°39'0 0.0
2017-Oct-04 23:31N 35°29' E 139°39'0 0.0
2017-Oct-04 23:01N 35°29' E 139°39'0 0.0
2017-Oct-04 22:31N 35°29' E 139°39'0 0.0
2017-Oct-04 22:00N 35°29' E 139°39'0 0.0
2017-Oct-04 21:31N 35°29' E 139°39'0 0.0
2017-Oct-04 21:01N 35°29' E 139°39'0 0.0
2017-Oct-04 20:31N 35°29' E 139°39'0 0.0
2017-Oct-04 20:01N 35°29' E 139°39'0 0.0
2017-Oct-04 19:31N 35°29' E 139°39'0 0.0
2017-Oct-04 19:01N 35°29' E 139°39'0 0.0
2017-Oct-04 18:31N 35°29' E 139°39'0 0.0
2017-Oct-04 18:01N 35°29' E 139°39'0 0.0
2017-Oct-04 17:31N 35°29' E 139°39'0 0.0
2017-Oct-04 17:01N 35°29' E 139°39'0 0.0
2017-Oct-04 16:31N 35°29' E 139°39'0 0.0
2017-Oct-04 16:01N 35°29' E 139°39'0 0.0
2017-Oct-04 15:31N 35°29' E 139°39'0 0.0
2017-Oct-04 15:01N 35°29' E 139°39'0 0.0
2017-Oct-04 14:31N 35°29' E 139°39'0 0.0
2017-Oct-04 14:01N 35°29' E 139°39'0 0.0
2017-Oct-04 13:30N 35°29' E 139°39'0 0.0
2017-Oct-04 13:01N 35°29' E 139°39'0 0.0
2017-Oct-04 12:31N 35°29' E 139°39'0 0.0
2017-Oct-04 12:01N 35°29' E 139°39'0 0.0
2017-Oct-04 11:31N 35°29' E 139°39'0 0.0
2017-Oct-04 11:01N 35°29' E 139°39'0 0.0
2017-Oct-04 10:31N 35°29' E 139°39'0 0.0
2017-Oct-04 10:01N 35°29' E 139°39'0 0.0
2017-Oct-04 09:31N 35°29' E 139°39'0 0.0
2017-Oct-04 09:01N 35°29' E 139°39'0 0.0
2017-Oct-04 08:31N 35°29' E 139°39'0 0.0
2017-Oct-04 08:01N 35°29' E 139°39'2 4.3
2017-Oct-04 07:31N 35°27' E 139°41'3 5.6
2017-Oct-04 07:01N 35°26' E 139°44'1 2.5
2017-Oct-04 06:31N 35°26' E 139°46'3 6.3
2017-Oct-04 06:01N 35°24' E 139°48'4 8.1
2017-Oct-04 05:30N 35°22' E 139°52'0 0.2
2017-Oct-04 05:01N 35°22' E 139°52'0 0.0
2017-Oct-04 04:31N 35°22' E 139°52'0 0.0
2017-Oct-04 02:50N 35°22' E 139°52'0 0.0
2017-Oct-04 02:21N 35°22' E 139°52'0 0.0
2017-Oct-04 02:00N 35°22' E 139°52'0 0.0
2017-Oct-04 01:27N 35°22' E 139°52'0 0.0
2017-Oct-04 00:57N 35°22' E 139°52'2 4.8
2017-Oct-04 00:30N 35°24' E 139°51'0 0.3
2017-Oct-03 23:58N 35°24' E 139°51'0 0.0
2017-Oct-03 23:30N 35°24' E 139°51'0 0.0
2017-Oct-03 23:00N 35°24' E 139°51'0 0.0
2017-Oct-03 22:31N 35°24' E 139°51'0 0.0
2017-Oct-03 22:01N 35°24' E 139°51'0 0.0
2017-Oct-03 21:30N 35°24' E 139°51'0 0.0
2017-Oct-03 21:01N 35°24' E 139°51'0 0.0
2017-Oct-03 20:31N 35°24' E 139°51'0 0.0
2017-Oct-03 20:00N 35°24' E 139°51'0 0.0
2017-Oct-03 19:30N 35°24' E 139°51'0 0.0
2017-Oct-03 19:00N 35°24' E 139°51'0 0.0
2017-Oct-03 18:23N 35°24' E 139°51'0 0.0
2017-Oct-03 17:55N 35°24' E 139°51'0 0.0
2017-Oct-03 17:30N 35°24' E 139°51'0 0.0
2017-Oct-03 16:59N 35°24' E 139°51'0 0.0
2017-Oct-03 16:29N 35°24' E 139°51'0 0.0
2017-Oct-03 16:00N 35°24' E 139°51'0 0.0
2017-Oct-03 15:31N 35°24' E 139°51'0 0.0
2017-Oct-03 15:01N 35°24' E 139°51'0 0.0
2017-Oct-03 14:01N 35°24' E 139°51'0 0.0
2017-Oct-03 13:28N 35°24' E 139°51'0 0.0
2017-Oct-03 12:59N 35°24' E 139°51'0 0.0
2017-Oct-03 12:30N 35°24' E 139°51'0 0.0
2017-Oct-03 12:00N 35°24' E 139°51'0 0.0
2017-Oct-03 11:30N 35°24' E 139°51'0 0.0
2017-Oct-03 11:01N 35°24' E 139°51'1 1.1
2017-Oct-03 10:31N 35°24' E 139°50'510.8
2017-Oct-03 10:01N 35°21' E 139°45'510.8
2017-Oct-03 09:31N 35°15' E 139°47'612.3
2017-Oct-03 09:00N 35°09' E 139°46'612.4
2017-Oct-03 08:30N 35°04' E 139°43'612.7
2017-Oct-03 08:00N 34°59' E 139°37'23410.3
2017-Oct-02 09:16N 34°02' E 135°02'311.9
2017-Oct-02 08:59N 34°05' E 135°03'611.6
2017-Oct-02 08:30N 34°11' E 135°04'4 8.7
2017-Oct-02 08:00N 34°15' E 135°07'0 0.5
2017-Oct-02 07:30N 34°15' E 135°07'0 0.0
2017-Oct-02 07:01N 34°15' E 135°07'0 0.0
2017-Oct-02 06:30N 34°15' E 135°07'0 0.0
2017-Oct-02 06:01N 34°15' E 135°07'0 0.0
2017-Oct-02 05:30N 34°15' E 135°07'0 0.0
2017-Oct-02 05:01N 34°15' E 135°07'0 0.0
2017-Oct-02 04:30N 34°15' E 135°07'0 0.0
2017-Oct-02 04:01N 34°15' E 135°07'0 0.0
2017-Oct-02 03:31N 34°15' E 135°07'0 0.0
2017-Oct-02 03:01N 34°15' E 135°07'0 0.0
2017-Oct-02 02:30N 34°15' E 135°07'0 0.0
2017-Oct-02 02:00N 34°15' E 135°07'0 0.0
2017-Oct-02 01:30N 34°15' E 135°07'0 0.0
2017-Oct-02 01:00N 34°15' E 135°07'0 0.0
2017-Oct-02 00:31N 34°15' E 135°07'0 0.0
2017-Oct-02 00:00N 34°15' E 135°07'0 0.0
2017-Oct-01 23:30N 34°15' E 135°07'0 0.0
2017-Oct-01 23:00N 34°15' E 135°07'0 0.0
2017-Oct-01 22:31N 34°15' E 135°07'0 0.0
2017-Oct-01 22:00N 34°15' E 135°07'2 4.1
2017-Oct-01 21:31N 34°14' E 135°04'713.2
2017-Oct-01 21:00N 34°13' E 134°57'  
Track history (hours):
 
Tides and Currents Weather Stations Pressure Air Temp Water Temp Dewpoint Dewpoint Depression Visibility Wind Speed Wind Dir Waves Ship Positions

Suehiro Maru No.8

Last reported at 2017-Oct-10 15:03 UTC. Time now 2017-Oct-17 15:33 UTC.
Position N 33°57' E 134°56'.

Length 88 m; draft 4.5 m.

Type: Cargo ship. MMSI: 431400446.

Date/timePositionNaut miles runAvg speedWind from/ knotsBaromVisibWave heightAir tempDewpointWater temp
2017-Oct-10 15:03N 33°57' E 134°56'  
2017-Oct-06 10:50N 34°51' E 139°12'1212.4
2017-Oct-06 09:52N 34°58' E 139°23'412.3
2017-Oct-06 09:30N 35°01' E 139°28'611.9
2017-Oct-06 09:00N 35°04' E 139°34'612.4
2017-Oct-06 08:30N 35°07' E 139°40'612.2
2017-Oct-06 08:00N 35°11' E 139°45'611.5
2017-Oct-06 07:31N 35°17' E 139°45'612.4
2017-Oct-06 07:01N 35°23' E 139°42'612.7
2017-Oct-06 06:31N 35°28' E 139°48'3 6.3
2017-Oct-06 06:00N 35°31' E 139°50'0 0.0
2017-Oct-06 05:31N 35°31' E 139°50'0 0.1
2017-Oct-06 05:01N 35°31' E 139°50'4 8.8
2017-Oct-06 04:31N 35°35' E 139°51'3 5.1
2017-Oct-06 03:56N 35°37' E 139°49'0 0.0
2017-Oct-06 03:27N 35°37' E 139°49'0 0.0
2017-Oct-06 03:00N 35°37' E 139°49'0 0.0
2017-Oct-06 02:30N 35°37' E 139°49'0 0.0
2017-Oct-06 02:00N 35°37' E 139°49'0 0.0
2017-Oct-06 01:30N 35°37' E 139°49'0 0.0
2017-Oct-06 00:59N 35°37' E 139°49'0 0.0
2017-Oct-06 00:29N 35°37' E 139°49'0 0.0
2017-Oct-05 23:59N 35°37' E 139°49'0 0.0
2017-Oct-05 23:30N 35°37' E 139°49'0 0.0
2017-Oct-05 23:00N 35°37' E 139°49'0 0.0
2017-Oct-05 22:30N 35°37' E 139°49'0 0.0
2017-Oct-05 21:57N 35°37' E 139°49'2 5.2
2017-Oct-05 21:30N 35°36' E 139°50'2 3.5
2017-Oct-05 21:01N 35°34' E 139°52'0 0.0
2017-Oct-05 20:31N 35°34' E 139°52'0 0.0
2017-Oct-05 20:01N 35°34' E 139°52'0 0.0
2017-Oct-05 19:31N 35°34' E 139°52'5 9.9
2017-Oct-05 19:00N 35°29' E 139°52'612.3
2017-Oct-05 18:31N 35°23' E 139°51'2 3.3
2017-Oct-05 18:00N 35°22' E 139°52'0 0.0
2017-Oct-05 17:30N 35°22' E 139°52'0 0.0
2017-Oct-05 17:00N 35°22' E 139°52'0 0.0
2017-Oct-05 15:10N 35°22' E 139°52'0 0.0
2017-Oct-05 15:00N 35°22' E 139°52'0 0.0
2017-Oct-05 14:30N 35°22' E 139°52'0 0.0
2017-Oct-05 14:00N 35°22' E 139°52'0 0.0
2017-Oct-05 13:30N 35°22' E 139°52'0 0.0
2017-Oct-05 11:30N 35°22' E 139°52'0 0.0
2017-Oct-05 10:51N 35°22' E 139°52'0 0.0
2017-Oct-05 10:24N 35°22' E 139°52'0 0.0
2017-Oct-05 08:00N 35°22' E 139°52'0 0.0
2017-Oct-05 07:18N 35°22' E 139°52'0 0.0
2017-Oct-05 06:58N 35°22' E 139°52'0 0.0
2017-Oct-05 06:30N 35°22' E 139°52'0 0.0
2017-Oct-05 05:58N 35°22' E 139°52'0 0.1
2017-Oct-05 05:31N 35°22' E 139°52'3 6.6
2017-Oct-05 05:00N 35°23' E 139°49'4 8.1
2017-Oct-05 04:31N 35°25' E 139°44'510.8
2017-Oct-05 04:01N 35°28' E 139°39'0 0.2
2017-Oct-05 03:31N 35°29' E 139°39'0 0.0
2017-Oct-05 03:01N 35°29' E 139°39'0 0.0
2017-Oct-05 02:31N 35°29' E 139°39'0 0.0
2017-Oct-05 02:01N 35°29' E 139°39'0 0.0
2017-Oct-05 01:31N 35°29' E 139°39'0 0.0
2017-Oct-05 01:01N 35°29' E 139°39'0 0.0
2017-Oct-05 00:30N 35°29' E 139°39'0 0.0
2017-Oct-05 00:01N 35°29' E 139°39'0 0.0
2017-Oct-04 23:31N 35°29' E 139°39'0 0.0
2017-Oct-04 23:01N 35°29' E 139°39'0 0.0
2017-Oct-04 22:31N 35°29' E 139°39'0 0.0
2017-Oct-04 22:00N 35°29' E 139°39'0 0.0
2017-Oct-04 21:31N 35°29' E 139°39'0 0.0
2017-Oct-04 21:01N 35°29' E 139°39'0 0.0
2017-Oct-04 20:31N 35°29' E 139°39'0 0.0
2017-Oct-04 20:01N 35°29' E 139°39'0 0.0
2017-Oct-04 19:31N 35°29' E 139°39'0 0.0
2017-Oct-04 19:01N 35°29' E 139°39'0 0.0
2017-Oct-04 18:31N 35°29' E 139°39'0 0.0
2017-Oct-04 18:01N 35°29' E 139°39'0 0.0
2017-Oct-04 17:31N 35°29' E 139°39'0 0.0
2017-Oct-04 17:01N 35°29' E 139°39'0 0.0
2017-Oct-04 16:31N 35°29' E 139°39'0 0.0
2017-Oct-04 16:01N 35°29' E 139°39'0 0.0
2017-Oct-04 15:31N 35°29' E 139°39'0 0.0
2017-Oct-04 15:01N 35°29' E 139°39'0 0.0
2017-Oct-04 14:31N 35°29' E 139°39'0 0.0
2017-Oct-04 14:01N 35°29' E 139°39'0 0.0
2017-Oct-04 13:30N 35°29' E 139°39'0 0.0
2017-Oct-04 13:01N 35°29' E 139°39'0 0.0
2017-Oct-04 12:31N 35°29' E 139°39'0 0.0
2017-Oct-04 12:01N 35°29' E 139°39'0 0.0
2017-Oct-04 11:31N 35°29' E 139°39'0 0.0
2017-Oct-04 11:01N 35°29' E 139°39'0 0.0
2017-Oct-04 10:31N 35°29' E 139°39'0 0.0
2017-Oct-04 10:01N 35°29' E 139°39'0 0.0
2017-Oct-04 09:31N 35°29' E 139°39'0 0.0
2017-Oct-04 09:01N 35°29' E 139°39'0 0.0
2017-Oct-04 08:31N 35°29' E 139°39'0 0.0
2017-Oct-04 08:01N 35°29' E 139°39'2 4.3
2017-Oct-04 07:31N 35°27' E 139°41'3 5.6
2017-Oct-04 07:01N 35°26' E 139°44'1 2.5
2017-Oct-04 06:31N 35°26' E 139°46'3 6.3
2017-Oct-04 06:01N 35°24' E 139°48'4 8.1
2017-Oct-04 05:30N 35°22' E 139°52'0 0.2
2017-Oct-04 05:01N 35°22' E 139°52'0 0.0
2017-Oct-04 04:31N 35°22' E 139°52'0 0.0
2017-Oct-04 02:50N 35°22' E 139°52'0 0.0
2017-Oct-04 02:21N 35°22' E 139°52'0 0.0
2017-Oct-04 02:00N 35°22' E 139°52'0 0.0
2017-Oct-04 01:27N 35°22' E 139°52'0 0.0
2017-Oct-04 00:57N 35°22' E 139°52'2 4.8
2017-Oct-04 00:30N 35°24' E 139°51'0 0.3
2017-Oct-03 23:58N 35°24' E 139°51'0 0.0
2017-Oct-03 23:30N 35°24' E 139°51'0 0.0
2017-Oct-03 23:00N 35°24' E 139°51'0 0.0
2017-Oct-03 22:31N 35°24' E 139°51'0 0.0
2017-Oct-03 22:01N 35°24' E 139°51'0 0.0
2017-Oct-03 21:30N 35°24' E 139°51'0 0.0
2017-Oct-03 21:01N 35°24' E 139°51'0 0.0
2017-Oct-03 20:31N 35°24' E 139°51'0 0.0
2017-Oct-03 20:00N 35°24' E 139°51'0 0.0
2017-Oct-03 19:30N 35°24' E 139°51'0 0.0
2017-Oct-03 19:00N 35°24' E 139°51'0 0.0
2017-Oct-03 18:23N 35°24' E 139°51'0 0.0
2017-Oct-03 17:55N 35°24' E 139°51'0 0.0
2017-Oct-03 17:30N 35°24' E 139°51'0 0.0
2017-Oct-03 16:59N 35°24' E 139°51'0 0.0
2017-Oct-03 16:29N 35°24' E 139°51'0 0.0
2017-Oct-03 16:00N 35°24' E 139°51'0 0.0
2017-Oct-03 15:31N 35°24' E 139°51'0 0.0
2017-Oct-03 15:01N 35°24' E 139°51'0 0.0
2017-Oct-03 14:01N 35°24' E 139°51'0 0.0
2017-Oct-03 13:28N 35°24' E 139°51'0 0.0
2017-Oct-03 12:59N 35°24' E 139°51'0 0.0
2017-Oct-03 12:30N 35°24' E 139°51'0 0.0
2017-Oct-03 12:00N 35°24' E 139°51'0 0.0
2017-Oct-03 11:30N 35°24' E 139°51'0 0.0
2017-Oct-03 11:01N 35°24' E 139°51'1 1.1
2017-Oct-03 10:31N 35°24' E 139°50'510.8
2017-Oct-03 10:01N 35°21' E 139°45'510.8
2017-Oct-03 09:31N 35°15' E 139°47'612.3
2017-Oct-03 09:00N 35°09' E 139°46'612.4
2017-Oct-03 08:30N 35°04' E 139°43'612.7
2017-Oct-03 08:00N 34°59' E 139°37'23410.3
2017-Oct-02 09:16N 34°02' E 135°02'311.9
2017-Oct-02 08:59N 34°05' E 135°03'611.6
2017-Oct-02 08:30N 34°11' E 135°04'4 8.7
2017-Oct-02 08:00N 34°15' E 135°07'0 0.5
2017-Oct-02 07:30N 34°15' E 135°07'0 0.0
2017-Oct-02 07:01N 34°15' E 135°07'0 0.0
2017-Oct-02 06:30N 34°15' E 135°07'0 0.0
2017-Oct-02 06:01N 34°15' E 135°07'0 0.0
2017-Oct-02 05:30N 34°15' E 135°07'0 0.0
2017-Oct-02 05:01N 34°15' E 135°07'0 0.0
2017-Oct-02 04:30N 34°15' E 135°07'0 0.0
2017-Oct-02 04:01N 34°15' E 135°07'0 0.0
2017-Oct-02 03:31N 34°15' E 135°07'0 0.0
2017-Oct-02 03:01N 34°15' E 135°07'0 0.0
2017-Oct-02 02:30N 34°15' E 135°07'0 0.0
2017-Oct-02 02:00N 34°15' E 135°07'0 0.0
2017-Oct-02 01:30N 34°15' E 135°07'0 0.0
2017-Oct-02 01:00N 34°15' E 135°07'0 0.0
2017-Oct-02 00:31N 34°15' E 135°07'0 0.0
2017-Oct-02 00:00N 34°15' E 135°07'0 0.0
2017-Oct-01 23:30N 34°15' E 135°07'0 0.0
2017-Oct-01 23:00N 34°15' E 135°07'0 0.0
2017-Oct-01 22:31N 34°15' E 135°07'0 0.0
2017-Oct-01 22:00N 34°15' E 135°07'2 4.1
2017-Oct-01 21:31N 34°14' E 135°04'713.2
2017-Oct-01 21:00N 34°13' E 134°57'  

Dump ship's entire track history